Time;durP1;ratioP1;P1;durP2;ratioP2;P2;SDS_P1;SDS_P2;PMS_P1;PMS_P2;Temp;Humidity;BMP_temperature;BMP_pressure;BME280_temperature;BME280_humidity;BME280_pressure;Samples;Min_cycle;Max_cycle;Signal;HPM_P1;HPM_P2
2022/08/14 00:02:26;;;;;;;;;;;26.10;40.80;;;24.18;42.60;101090.41;12250849;19;19933;-89
2022/08/14 00:06:27;;;;;;;;;;;26.00;40.80;;;24.14;42.71;101090.88;12251342;19;19922;-90
2022/08/14 00:10:29;;;;;;;;;;;26.00;40.80;;;24.04;42.69;101091.03;12250952;19;19915;-90
2022/08/14 00:14:30;;;;;;;;;;;25.90;41.00;;;24.14;42.90;101112.22;12254054;19;19915;-86
2022/08/14 00:18:32;;;;;;;;;;;25.90;41.00;;;24.16;42.79;101115.56;12253947;19;19926;-89
2022/08/14 00:22:33;;;;;;;;;;;25.80;41.00;;;23.97;43.24;101090.84;12249838;19;19934;-88
2022/08/14 00:26:35;;;;;;;;;;;25.80;41.10;;;24.06;43.03;101115.72;12251041;19;20368;-88
2022/08/14 00:30:36;;;;;;;;;;;25.80;41.20;;;23.85;43.19;101077.00;12253664;19;19918;-87
2022/08/14 00:34:38;;;;;;;;;;;25.80;41.30;;;24.04;43.53;101099.03;12253452;19;19907;-88
2022/08/14 00:38:39;;;;;;;;;;;25.80;41.40;;;24.11;43.29;101105.38;12252930;19;19923;-87
2022/08/14 00:42:41;;;;;;;;;;;25.70;41.50;;;24.11;43.24;101107.22;12249756;19;19923;-89
2022/08/14 00:46:44;;;;;;;;;;;25.70;41.50;;;24.08;43.49;101101.22;12250000;19;19929;-88
2022/08/14 00:50:45;;;;;;;;;;;25.70;41.50;;;23.89;42.88;101068.66;12250743;19;19918;-88
2022/08/14 00:54:52;;;;;;;;;;;25.70;41.60;;;23.95;43.61;101073.34;12250871;19;20261;-88
2022/08/14 00:58:54;;;;;;;;;;;25.70;41.70;;;24.06;43.26;101099.69;12254386;19;20278;-87
2022/08/14 01:02:56;;;;;;;;;;;25.70;41.70;;;24.13;43.46;101106.06;12256297;19;19907;-87
2022/08/14 01:06:57;;;;;;;;;;;25.70;41.60;;;23.49;43.31;101000.84;12262061;19;19923;-88
2022/08/14 01:10:59;;;;;;;;;;;25.70;41.60;;;24.02;43.45;101077.84;12261580;19;20309;-87
2022/08/14 01:15:01;;;;;;;;;;;25.70;41.70;;;23.41;43.61;100989.19;12263600;19;19911;-88
2022/08/14 01:23:23;;;;;;;;;;;25.90;41.80;;;23.92;43.81;101063.00;12261294;19;19978;-87
2022/08/14 01:27:27;;;;;;;;;;;25.70;41.80;;;24.01;43.44;101083.38;12253046;19;19911;-87
2022/08/14 01:31:32;;;;;;;;;;;25.80;41.80;;;23.98;43.72;101089.88;12249804;19;19923;-89
2022/08/14 01:35:34;;;;;;;;;;;25.60;41.70;;;23.40;43.71;100990.16;12253010;19;19919;-89
2022/08/14 01:39:35;;;;;;;;;;;25.60;41.60;;;23.83;43.99;101070.97;12250077;19;19915;-88
2022/08/14 01:43:50;;;;;;;;;;;25.60;41.60;;;23.73;43.87;101058.78;12247608;19;19910;-88
2022/08/14 01:47:52;;;;;;;;;;;25.50;41.60;;;23.70;44.22;101064.41;12247947;19;19915;-87
2022/08/14 01:51:55;;;;;;;;;;;25.40;41.60;;;23.66;44.04;101077.25;12250607;19;19931;-88
2022/08/14 01:56:03;;;;;;;;;;;25.40;41.60;;;23.54;44.04;101063.34;12251510;19;19926;-88
2022/08/14 02:00:09;;;;;;;;;;;25.40;41.90;;;23.58;44.29;101071.88;12250643;19;19924;-89
2022/08/14 02:04:10;;;;;;;;;;;25.30;42.00;;;23.23;44.02;101007.09;12258773;19;19950;-88
2022/08/14 02:08:12;;;;;;;;;;;25.30;42.10;;;23.54;44.23;101058.00;12258963;19;19911;-88
2022/08/14 02:12:14;;;;;;;;;;;25.30;42.00;;;23.62;44.44;101073.22;12254073;19;20261;-88
2022/08/14 02:16:17;;;;;;;;;;;25.30;42.10;;;23.52;44.30;101059.16;12258481;19;19922;-88
2022/08/14 02:20:19;;;;;;;;;;;25.20;42.20;;;23.57;44.63;101065.72;12248719;19;19922;-88
2022/08/14 02:24:28;;;;;;;;;;;25.30;42.30;;;23.51;44.20;101046.84;12249893;19;19918;-88
2022/08/14 02:28:30;;;;;;;;;;;25.20;42.30;;;23.64;44.79;101056.06;12250615;19;20020;-88
2022/08/14 02:32:35;;;;;;;;;;;25.20;42.50;;;23.64;44.58;101063.22;12248329;19;19937;-87
2022/08/14 02:36:37;;;;;;;;;;;25.30;42.60;;;23.61;44.87;101048.38;12249461;19;19946;-88
2022/08/14 02:40:39;;;;;;;;;;;25.30;42.70;;;23.68;44.44;101061.06;12247844;19;19922;-88
2022/08/14 02:44:42;;;;;;;;;;;25.30;42.80;;;23.42;44.66;101011.34;12248174;19;19961;-89
2022/08/14 02:48:43;;;;;;;;;;;25.30;42.80;;;23.54;44.73;101019.88;12245532;19;19974;-88
2022/08/14 02:52:45;;;;;;;;;;;25.30;42.70;;;23.63;44.62;101038.41;12242954;19;19922;-89
2022/08/14 02:56:46;;;;;;;;;;;25.30;42.80;;;23.69;45.07;101042.25;12246417;19;19918;-89
2022/08/14 03:00:48;;;;;;;;;;;25.30;42.70;;;23.62;44.67;101027.88;12245890;19;19911;-88
2022/08/14 03:04:49;;;;;;;;;;;25.30;42.80;;;23.41;44.82;100996.31;12248259;19;19926;-88
2022/08/14 03:08:52;;;;;;;;;;;25.60;43.00;;;23.65;44.82;101032.88;12252394;19;19935;-89
2022/08/14 03:12:56;;;;;;;;;;;25.30;42.80;;;23.67;45.12;101038.91;12253942;19;19951;-88
2022/08/14 03:16:57;;;;;;;;;;;25.40;42.80;;;23.61;45.15;101036.88;12257817;19;19918;-89
2022/08/14 03:21:01;;;;;;;;;;;25.30;42.80;;;23.52;45.13;101020.03;12256236;19;20329;-88
2022/08/14 03:25:03;;;;;;;;;;;25.50;42.90;;;23.62;44.97;101031.38;12258081;19;21939;-89
2022/08/14 03:29:06;;;;;;;;;;;25.30;42.80;;;23.55;45.17;101034.88;12259296;19;19996;-90
2022/08/14 03:33:09;;;;;;;;;;;25.30;42.70;;;23.07;45.17;100975.91;12258572;19;20322;-88
2022/08/14 03:37:11;;;;;;;;;;;25.40;42.70;;;23.14;45.12;100989.41;12258370;19;20316;-92
2022/08/14 03:41:16;;;;;;;;;;;25.10;42.70;;;23.09;45.13;100991.72;12255081;19;19919;-89
2022/08/14 03:45:17;;;;;;;;;;;25.10;42.90;;;23.05;45.25;100975.22;12255571;19;20003;-89
2022/08/14 03:49:23;;;;;;;;;;;25.10;43.20;;;23.26;45.45;101004.13;12256771;19;19931;-88
2022/08/14 03:53:25;;;;;;;;;;;25.10;43.30;;;23.12;45.41;100973.59;12254983;19;19919;-88
2022/08/14 03:57:31;;;;;;;;;;;25.20;43.40;;;23.49;45.58;101022.19;12257012;19;19907;-88
2022/08/14 04:01:32;;;;;;;;;;;25.30;43.40;;;23.06;45.46;100949.41;12253149;19;19946;-89
2022/08/14 04:05:37;;;;;;;;;;;25.10;43.30;;;22.91;45.62;100923.34;12254756;19;19923;-89
2022/08/14 04:09:38;;;;;;;;;;;25.10;43.50;;;23.46;45.83;101012.66;12254430;19;19962;-88
2022/08/14 04:13:41;;;;;;;;;;;25.10;43.20;;;23.32;45.50;100987.47;12254441;19;19925;-89
2022/08/14 04:17:43;;;;;;;;;;;25.30;43.50;;;23.20;45.84;100975.44;12256577;19;19911;-89
2022/08/14 04:21:44;;;;;;;;;;;25.10;43.60;;;23.34;46.01;100995.31;12252301;19;19923;-89
2022/08/14 04:25:46;;;;;;;;;;;25.10;43.60;;;23.34;45.76;100997.97;12255085;19;19914;-88
2022/08/14 04:29:48;;;;;;;;;;;25.10;43.40;;;23.21;45.66;100984.28;12253730;19;19940;-89
2022/08/14 04:33:51;;;;;;;;;;;25.10;43.50;;;23.19;45.71;100993.25;12254649;19;20330;-88
2022/08/14 04:46:34;;;;;;;;;;;25.00;43.60;;;23.21;45.88;101005.59;12251476;19;19919;-88
2022/08/14 04:50:48;;;;;;;;;;;24.90;43.70;;;23.24;46.35;101000.78;12252681;19;19953;-88
2022/08/14 04:54:50;;;;;;;;;;;24.90;43.60;;;23.20;46.29;100999.44;12254206;19;20338;-88
2022/08/14 04:58:58;;;;;;;;;;;24.90;43.60;;;23.15;46.13;100991.91;12254095;19;19914;-89
2022/08/14 05:03:02;;;;;;;;;;;24.90;43.90;;;23.04;46.25;100967.41;12250524;19;19910;-87
2022/08/14 05:07:03;;;;;;;;;;;24.90;44.00;;;23.16;46.48;100974.09;12249344;19;19919;-89
2022/08/14 05:11:06;;;;;;;;;;;24.90;44.20;;;22.93;46.34;100920.53;12248715;19;19931;-89
2022/08/14 05:15:09;;;;;;;;;;;25.00;44.20;;;23.37;46.63;100974.50;12251407;19;19922;-89
2022/08/14 05:19:13;;;;;;;;;;;25.10;44.30;;;23.39;46.62;100961.03;12249232;19;19930;-90
2022/08/14 05:23:17;;;;;;;;;;;25.10;44.50;;;23.54;46.39;100983.38;12248324;19;19925;-89
2022/08/14 05:27:19;;;;;;;;;;;25.10;44.50;;;23.54;46.57;100974.53;12239458;19;19960;-87
2022/08/14 05:31:21;;;;;;;;;;;25.20;44.60;;;23.59;46.29;100966.88;12242144;19;19938;-89
2022/08/14 05:35:23;;;;;;;;;;;25.20;44.60;;;23.51;46.92;100945.53;12248817;19;19915;-90
2022/08/14 05:39:24;;;;;;;;;;;25.30;44.90;;;23.71;46.66;100962.94;12247524;19;20357;-89
2022/08/14 05:43:26;;;;;;;;;;;25.40;44.90;;;23.27;46.69;100890.34;12247740;19;19978;-89
2022/08/14 05:47:28;;;;;;;;;;;25.50;44.80;;;23.74;46.57;100949.28;12247101;19;19925;-89
2022/08/14 05:51:29;;;;;;;;;;;25.50;44.80;;;23.84;46.85;100959.78;12245930;19;19923;-88
2022/08/14 05:55:31;;;;;;;;;;;25.50;44.90;;;23.57;46.72;100912.88;12247898;19;19978;-88
2022/08/14 05:59:32;;;;;;;;;;;25.60;45.10;;;23.82;46.90;100948.47;12247444;19;19910;-89
2022/08/14 06:03:34;;;;;;;;;;;25.60;45.00;;;23.69;46.96;100919.56;12247046;19;19918;-89
2022/08/14 06:07:36;;;;;;;;;;;25.60;45.10;;;23.95;46.80;100951.47;12244901;19;19948;-89
2022/08/14 06:11:38;;;;;;;;;;;25.70;45.10;;;24.08;46.70;100961.63;12246492;19;19935;-88
2022/08/14 06:15:40;;;;;;;;;;;26.10;45.40;;;24.01;47.20;100940.13;12248460;19;19918;-88
2022/08/14 06:19:42;;;;;;;;;;;25.80;45.30;;;24.17;46.87;100943.75;12248894;19;19992;-88
2022/08/14 06:23:43;;;;;;;;;;;25.90;45.30;;;24.28;46.85;100957.63;12247284;19;19917;-89
2022/08/14 06:27:47;;;;;;;;;;;26.30;45.60;;;24.12;47.10;100917.59;12244458;19;19918;-89
2022/08/14 06:31:48;;;;;;;;;;;26.00;45.50;;;24.38;47.30;100941.41;12244972;19;19922;-89
2022/08/14 06:35:50;;;;;;;;;;;26.00;45.50;;;24.40;47.07;100933.22;12245289;19;20257;-89
2022/08/14 06:39:52;;;;;;;;;;;26.20;45.70;;;24.46;47.52;100935.25;12244355;19;19918;-89
2022/08/14 06:43:53;;;;;;;;;;;26.20;45.80;;;24.64;47.33;100940.38;12250177;19;20242;-88
2022/08/14 06:47:55;;;;;;;;;;;26.40;45.70;;;24.64;47.51;100929.69;12252122;19;20355;-87
2022/08/14 06:51:56;;;;;;;;;;;26.30;45.60;;;24.71;47.55;100915.50;12251723;19;19911;-88
2022/08/14 06:55:58;;;;;;;;;;;26.30;45.60;;;24.91;47.35;100931.94;12254476;19;19928;-87
2022/08/14 07:00:00;;;;;;;;;;;26.40;45.80;;;25.08;47.16;100948.72;12252535;19;20245;-86
2022/08/14 07:08:28;;;;;;;;;;;26.70;46.40;;;25.18;47.77;100929.84;12252227;19;19914;-86
2022/08/14 07:12:29;;;;;;;;;;;26.70;45.50;;;25.24;47.18;100925.63;12249663;19;20262;-87
2022/08/14 07:16:31;;;;;;;;;;;26.90;45.70;;;25.37;47.52;100921.38;12249626;19;20381;-87
2022/08/14 07:20:33;;;;;;;;;;;26.90;45.60;;;25.12;47.66;100867.19;12252334;19;19922;-87
2022/08/14 07:24:34;;;;;;;;;;;27.00;45.60;;;25.61;47.37;100920.38;12254818;19;19922;-88
2022/08/14 07:28:38;;;;;;;;;;;27.10;45.80;;;25.49;47.16;100878.16;12249261;19;19970;-87
2022/08/14 07:32:39;;;;;;;;;;;27.30;45.60;;;25.94;47.67;100921.97;12248562;19;19915;-87
2022/08/14 07:36:40;;;;;;;;;;;27.40;45.80;;;26.12;47.31;100916.31;12054083;19;3830954;-88
2022/08/14 07:40:42;;;;;;;;;;;27.50;45.90;;;26.39;47.69;100899.63;12254762;19;19939;-87
2022/08/14 07:44:43;;;;;;;;;;;27.90;46.30;;;26.30;47.58;100836.44;12253553;19;19955;-87
2022/08/14 07:48:47;;;;;;;;;;;28.10;46.20;;;26.96;47.52;100902.66;12256835;19;19917;-88
2022/08/14 07:52:48;;;;;;;;;;;28.30;45.80;;;27.12;47.13;100900.59;12252764;19;19930;-88
2022/08/14 07:56:50;;;;;;;;;;;28.60;45.50;;;27.04;47.48;100851.63;12255816;19;20230;-87
2022/08/14 08:00:56;;;;;;;;;;;28.80;45.50;;;27.67;47.29;100909.00;12254674;19;19926;-87
2022/08/14 08:04:59;;;;;;;;;;;29.00;45.50;;;27.92;47.05;100904.13;12265110;19;19939;-88
2022/08/14 08:09:01;;;;;;;;;;;29.20;45.60;;;28.06;47.13;100870.13;12261060;19;19926;-86
2022/08/14 08:13:17;;;;;;;;;;;29.40;45.60;;;28.45;47.09;100885.69;12256074;19;19915;-88
2022/08/14 08:17:19;;;;;;;;;;;29.80;45.50;;;28.62;46.99;100874.59;12261517;19;19926;-88
2022/08/14 08:21:21;;;;;;;;;;;30.00;45.00;;;28.80;46.64;100877.56;12256484;19;20282;-88
2022/08/14 08:25:23;;;;;;;;;;;30.20;44.80;;;28.93;46.38;100881.34;12258665;19;19911;-87
2022/08/14 08:29:25;;;;;;;;;;;30.30;44.50;;;29.07;46.34;100875.00;12256208;19;19919;-88
2022/08/14 08:33:29;;;;;;;;;;;30.50;44.20;;;29.19;46.50;100875.22;12256925;19;19919;-88
2022/08/14 08:37:35;;;;;;;;;;;30.70;44.10;;;29.39;46.62;100875.28;12247689;19;19919;-89
2022/08/14 08:41:40;;;;;;;;;;;30.80;44.10;;;29.61;46.21;100881.31;12251898;19;19935;-88
2022/08/14 08:45:42;;;;;;;;;;;31.00;44.10;;;29.74;46.30;100865.19;12252259;19;19923;-90
2022/08/14 08:49:44;;;;;;;;;;;31.10;43.50;;;29.83;45.82;100857.72;12252784;19;19918;-89
2022/08/14 08:53:54;;;;;;;;;;;31.20;43.30;;;29.66;45.76;100800.78;12253647;19;20357;-89
2022/08/14 08:57:57;;;;;;;;;;;31.40;43.40;;;29.75;45.54;100799.53;12251787;19;19918;-87
2022/08/14 09:02:08;;;;;;;;;;;31.50;43.20;;;30.20;45.56;100846.25;12252381;19;19915;-87
2022/08/14 09:06:09;;;;;;;;;;;31.60;42.80;;;30.30;45.14;100843.16;12255429;19;19923;-86
2022/08/14 09:10:11;;;;;;;;;;;31.70;42.90;;;30.17;44.62;100810.84;12269711;19;19915;-86
2022/08/14 09:14:12;;;;;;;;;;;31.80;42.40;;;30.45;45.30;100836.69;12264208;19;19943;-88
2022/08/14 09:18:16;;;;;;;;;;;31.90;42.20;;;30.66;44.78;100844.47;12255230;19;20296;-86
2022/08/14 09:22:18;;;;;;;;;;;32.00;42.70;;;30.79;44.74;100830.94;12253551;19;19989;-87
2022/08/14 09:26:20;;;;;;;;;;;32.10;42.70;;;30.68;44.41;100777.69;12255133;19;19961;-88
2022/08/14 09:30:22;;;;;;;;;;;32.30;42.40;;;30.93;44.24;100788.56;12249996;19;19951;-86
2022/08/14 09:34:53;;;;;;;;;;;32.40;42.10;;;31.37;44.15;100829.16;12255198;19;19918;-88
2022/08/14 09:39:29;;;;;;;;;;;32.60;42.40;;;31.55;44.30;100826.53;12253289;19;19927;-88
2022/08/14 09:43:42;;;;;;;;;;;32.80;42.00;;;31.57;44.04;100805.53;12252106;19;19990;-87
2022/08/14 09:47:54;;;;;;;;;;;32.90;41.60;;;31.78;43.73;100816.97;12250252;19;19927;-88
2022/08/14 09:52:26;;;;;;;;;;;33.10;41.40;;;31.84;43.39;100797.16;12250710;19;19914;-87
2022/08/14 09:56:28;;;;;;;;;;;33.20;41.80;;;31.95;43.65;100789.19;12250298;19;19953;-88
2022/08/14 10:00:43;;;;;;;;;;;33.30;41.40;;;32.06;43.67;100786.78;12250062;19;19914;-87
2022/08/14 10:04:46;;;;;;;;;;;33.40;40.30;;;32.21;43.23;100771.00;12251409;19;19923;-86
2022/08/14 10:08:56;;;;;;;;;;;33.50;40.90;;;32.42;42.40;100787.81;12252257;19;19964;-87
2022/08/14 10:12:59;;;;;;;;;;;33.70;41.00;;;32.56;42.43;100779.31;12247007;19;19974;-88
2022/08/14 10:17:02;;;;;;;;;;;33.80;39.50;;;32.59;42.38;100781.56;12251973;19;19915;-88
2022/08/14 10:21:05;;;;;;;;;;;33.90;40.40;;;32.35;42.39;100737.34;12248524;19;19920;-87
2022/08/14 10:25:14;;;;;;;;;;;34.00;40.10;;;32.53;42.02;100752.72;12250859;19;20031;-88
2022/08/14 10:29:16;;;;;;;;;;;34.00;39.30;;;32.71;41.92;100753.75;12251071;19;20268;-88
2022/08/14 10:33:29;;;;;;;;;;;34.10;39.50;;;32.87;41.83;100757.66;12251436;19;19922;-88
2022/08/14 10:37:41;;;;;;;;;;;34.20;39.90;;;32.92;41.35;100757.78;12250335;19;19925;-87
2022/08/14 10:41:44;;;;;;;;;;;34.30;38.20;;;32.89;41.45;100736.59;12247811;19;20332;-88
2022/08/14 10:46:00;;;;;;;;;;;34.30;39.20;;;32.81;41.30;100727.78;12247882;19;19978;-88
2022/08/14 10:50:03;;;;;;;;;;;34.30;39.40;;;32.67;40.97;100699.25;12245756;19;19922;-88
2022/08/14 10:54:07;;;;;;;;;;;34.30;39.70;;;32.68;40.71;100700.94;12247488;19;20250;-88
2022/08/14 10:58:12;;;;;;;;;;;34.30;39.30;;;32.86;40.76;100712.72;12249501;19;19939;-88
2022/08/14 11:02:21;;;;;;;;;;;34.30;39.00;;;33.03;40.73;100719.97;12245967;19;20282;-89
2022/08/14 11:06:23;;;;;;;;;;;34.30;39.20;;;32.98;41.09;100683.81;12249239;19;19930;-88
2022/08/14 11:10:46;;;;;;;;;;;34.40;39.00;;;33.03;40.74;100676.66;12248066;19;19914;-88
2022/08/14 11:14:56;;;;;;;;;;;34.50;39.00;;;33.27;40.81;100688.31;12247039;19;19911;-89
2022/08/14 11:18:57;;;;;;;;;;;34.60;38.90;;;33.33;40.78;100697.38;12248003;19;19914;-88
2022/08/14 11:23:00;;;;;;;;;;;34.70;39.10;;;33.37;40.33;100695.00;12244851;19;20230;-88
2022/08/14 11:27:02;;;;;;;;;;;34.70;38.80;;;33.03;40.46;100638.78;12244836;19;20300;-87
2022/08/14 11:31:07;;;;;;;;;;;34.70;38.60;;;33.27;40.38;100655.00;12255290;19;19925;-88
2022/08/14 11:35:14;;;;;;;;;;;34.80;38.40;;;33.46;40.52;100671.94;12259483;19;19915;-88
2022/08/14 11:39:22;;;;;;;;;;;34.90;38.30;;;33.59;40.35;100676.28;12260872;19;19913;-90
2022/08/14 11:43:25;;;;;;;;;;;35.00;38.20;;;33.76;39.91;100684.53;12262508;19;19918;-87
2022/08/14 11:47:27;;;;;;;;;;;35.00;38.70;;;33.67;39.77;100673.22;12262764;19;20371;-87
2022/08/14 11:51:28;;;;;;;;;;;35.10;36.90;;;33.77;39.50;100678.03;12261535;19;19915;-87
2022/08/14 11:55:37;;;;;;;;;;;35.10;38.30;;;33.51;39.26;100628.69;12262232;19;19917;-87
2022/08/14 11:59:39;;;;;;;;;;;35.20;38.60;;;33.88;39.21;100671.75;12259289;19;19925;-88
2022/08/14 12:03:46;;;;;;;;;;;35.20;37.40;;;33.97;38.86;100674.88;12259495;19;19923;-88
2022/08/14 12:07:49;;;;;;;;;;;35.30;37.50;;;33.87;39.18;100654.66;12255044;19;19927;-88
2022/08/14 12:11:50;;;;;;;;;;;35.30;37.30;;;33.97;38.48;100651.31;12255939;19;20020;-87
2022/08/14 12:16:06;;;;;;;;;;;35.30;35.80;;;33.96;38.69;100654.28;12259840;19;19919;-87
2022/08/14 12:20:10;;;;;;;;;;;35.30;36.80;;;34.03;38.32;100650.38;12254646;19;19970;-88
2022/08/14 12:24:11;;;;;;;;;;;35.30;36.90;;;34.11;38.34;100651.91;12258923;19;19907;-87
2022/08/14 12:28:14;;;;;;;;;;;35.40;35.90;;;34.08;38.17;100627.97;12254906;19;19923;-87
2022/08/14 12:32:16;;;;;;;;;;;35.40;37.10;;;34.00;38.05;100614.78;12254814;19;20288;-87
2022/08/14 12:36:22;;;;;;;;;;;35.50;36.80;;;33.80;37.68;100580.81;12259126;19;19914;-87
2022/08/14 12:40:24;;;;;;;;;;;35.50;35.20;;;33.92;37.80;100591.63;12248882;19;19919;-87
2022/08/14 12:44:32;;;;;;;;;;;35.50;35.90;;;33.96;37.93;100575.69;12255868;19;19957;-88
2022/08/14 12:48:43;;;;;;;;;;;35.50;36.30;;;34.15;36.68;100604.25;12255438;19;19935;-87
2022/08/14 12:52:44;;;;;;;;;;;35.60;36.50;;;34.10;36.72;100588.72;12253440;19;20381;-86
2022/08/14 12:56:46;;;;;;;;;;;35.60;36.20;;;33.88;36.59;100547.91;12254577;19;19910;-89
2022/08/14 13:00:51;;;;;;;;;;;35.60;36.30;;;34.25;36.20;100606.34;12251263;19;20331;-86
2022/08/14 13:04:54;;;;;;;;;;;35.60;36.00;;;34.23;36.87;100594.91;12251547;19;20557;-88
2022/08/14 13:08:55;;;;;;;;;;;35.60;35.30;;;34.32;36.55;100596.97;12252164;19;19915;-89
2022/08/14 13:12:58;;;;;;;;;;;35.60;35.30;;;34.32;36.33;100583.44;12250423;19;19918;-89
2022/08/14 13:17:03;;;;;;;;;;;35.60;35.60;;;34.34;36.68;100572.31;12254796;19;20329;-88
2022/08/14 13:21:05;;;;;;;;;;;35.70;34.60;;;34.35;35.66;100566.66;12253521;19;19919;-88
2022/08/14 13:25:07;;;;;;;;;;;35.70;36.00;;;34.39;36.22;100555.31;12250873;19;19915;-89
2022/08/14 13:29:10;;;;;;;;;;;35.70;35.20;;;34.52;35.99;100552.28;12253685;19;19919;-87
2022/08/14 13:33:12;;;;;;;;;;;35.80;36.00;;;34.42;35.37;100527.69;12248142;19;19964;-88
2022/08/14 13:37:15;;;;;;;;;;;35.80;32.70;;;34.42;35.11;100519.56;12252888;19;19982;-89
2022/08/14 13:41:22;;;;;;;;;;;35.80;34.90;;;34.20;34.63;100463.38;12249660;19;20281;-88
2022/08/14 13:45:25;;;;;;;;;;;35.80;35.90;;;34.52;34.59;100515.13;12247773;19;19940;-88
2022/08/14 13:49:26;;;;;;;;;;;35.90;35.60;;;34.58;35.18;100510.59;12251606;19;20333;-88
2022/08/14 13:53:29;;;;;;;;;;;35.80;33.60;;;34.52;34.75;100492.59;12248767;19;19953;-88
2022/08/14 13:57:33;;;;;;;;;;;35.90;34.30;;;34.58;34.54;100497.03;12251875;19;19923;-87
2022/08/14 14:01:35;;;;;;;;;;;35.80;34.50;;;34.50;34.77;100483.88;12249603;19;19938;-88
2022/08/14 14:05:37;;;;;;;;;;;35.90;33.70;;;34.36;34.26;100451.69;12248768;19;19923;-88
2022/08/14 14:09:41;;;;;;;;;;;35.90;34.50;;;34.56;34.50;100477.44;12251499;19;19922;-87
2022/08/14 14:13:43;;;;;;;;;;;35.90;33.80;;;34.67;34.42;100462.16;12249128;19;19915;-88
2022/08/14 14:17:46;;;;;;;;;;;36.00;33.80;;;34.68;34.51;100461.13;12251160;19;20248;-88
2022/08/14 14:21:49;;;;;;;;;;;36.00;33.70;;;34.76;33.96;100453.34;12246106;19;19922;-88
2022/08/14 14:25:51;;;;;;;;;;;36.00;34.60;;;34.77;33.80;100460.41;12243761;19;19918;-90
2022/08/14 14:29:56;;;;;;;;;;;36.10;33.90;;;34.79;33.95;100443.88;12247017;19;19927;-90
2022/08/14 14:34:01;;;;;;;;;;;36.10;33.60;;;34.78;33.79;100434.94;12249192;19;19949;-89
2022/08/14 14:38:03;;;;;;;;;;;36.10;34.20;;;34.86;34.01;100443.69;12249405;19;20259;-88
2022/08/14 14:42:07;;;;;;;;;;;36.10;33.50;;;34.89;33.80;100448.59;12242797;19;19919;-89
2022/08/14 14:46:08;;;;;;;;;;;36.10;33.60;;;34.84;33.55;100445.81;12247839;19;19915;-88
2022/08/14 14:50:11;;;;;;;;;;;36.10;33.60;;;34.82;33.61;100435.25;12242878;19;20370;-87
2022/08/14 14:54:15;;;;;;;;;;;36.10;33.10;;;34.84;33.34;100433.09;12248268;19;19914;-89
2022/08/14 14:58:18;;;;;;;;;;;36.10;33.50;;;34.62;33.50;100383.44;12249094;19;19919;-89
2022/08/14 15:02:33;;;;;;;;;;;36.10;33.70;;;34.87;33.38;100418.22;12241950;19;20485;-90
2022/08/14 15:06:34;;;;;;;;;;;36.10;33.50;;;34.94;33.37;100429.66;12257504;19;19931;-89
2022/08/14 15:10:37;;;;;;;;;;;36.20;33.60;;;34.84;33.15;100405.13;12250564;19;19926;-88
2022/08/14 15:14:38;;;;;;;;;;;36.20;33.70;;;34.95;33.25;100426.72;12259165;19;19922;-88
2022/08/14 15:18:40;;;;;;;;;;;36.20;31.70;;;34.89;33.09;100421.47;12259933;19;20354;-88
2022/08/14 15:22:41;;;;;;;;;;;36.20;32.80;;;34.90;33.22;100412.28;12253798;19;20328;-89
2022/08/14 15:26:44;;;;;;;;;;;36.20;32.90;;;34.87;32.61;100410.06;12258403;19;19918;-89
2022/08/14 15:30:46;;;;;;;;;;;36.20;33.30;;;34.65;32.92;100369.34;12255259;19;19919;-88
2022/08/14 15:34:47;;;;;;;;;;;36.20;33.10;;;34.98;32.81;100419.97;12257858;19;19926;-89
2022/08/14 15:38:50;;;;;;;;;;;36.20;33.10;;;34.70;32.66;100372.97;12258885;19;19943;-88
2022/08/14 15:42:52;;;;;;;;;;;36.20;33.40;;;34.88;32.81;100398.13;12255486;19;19919;-89
2022/08/14 15:46:55;;;;;;;;;;;36.20;33.00;;;34.75;32.82;100372.19;12252867;19;19926;-89
2022/08/14 15:50:57;;;;;;;;;;;36.20;33.00;;;34.91;32.84;100394.91;12253955;19;20258;-89
2022/08/14 15:54:58;;;;;;;;;;;36.20;32.80;;;34.86;32.54;100382.09;12256607;19;19915;-89
2022/08/14 15:59:00;;;;;;;;;;;36.20;33.50;;;34.85;32.49;100398.63;12257712;19;20285;-89
2022/08/14 16:03:02;;;;;;;;;;;36.10;33.20;;;34.72;32.50;100378.13;12251009;19;19915;-88
2022/08/14 16:07:03;;;;;;;;;;;36.10;33.10;;;34.74;32.56;100381.41;12253417;19;19919;-87
2022/08/14 16:11:07;;;;;;;;;;;36.10;32.90;;;34.73;32.67;100377.88;12253308;19;19927;-89
2022/08/14 16:15:10;;;;;;;;;;;36.00;33.00;;;34.71;32.59;100377.31;12253072;19;19919;-90
2022/08/14 16:19:11;;;;;;;;;;;36.00;33.10;;;34.50;32.69;100338.25;12253321;19;19918;-89
2022/08/14 16:23:16;;;;;;;;;;;35.90;33.10;;;34.65;32.39;100366.66;12256369;19;19965;-87
2022/08/14 16:27:18;;;;;;;;;;;35.90;33.40;;;34.52;32.08;100348.84;12255411;19;20246;-88
2022/08/14 16:31:21;;;;;;;;;;;35.90;33.20;;;34.03;32.64;100289.09;12255019;19;19915;-88
2022/08/14 16:35:28;;;;;;;;;;;35.80;33.40;;;34.33;32.34;100342.91;12256408;19;20467;-88
2022/08/14 16:39:30;;;;;;;;;;;35.80;33.10;;;34.26;32.20;100351.22;12255809;19;19935;-89
2022/08/14 16:43:31;;;;;;;;;;;35.70;33.40;;;33.81;32.38;100292.59;12253587;19;20560;-89
2022/08/14 16:47:33;;;;;;;;;;;35.60;32.90;;;33.99;32.47;100340.25;12259288;19;19919;-89
2022/08/14 16:51:35;;;;;;;;;;;35.50;33.00;;;33.98;32.51;100343.22;12260997;19;19915;-88
2022/08/14 16:55:37;;;;;;;;;;;35.40;33.20;;;33.84;32.62;100319.19;12258931;19;19918;-88
2022/08/14 16:59:39;;;;;;;;;;;35.20;33.20;;;33.90;32.71;100339.03;12254777;19;19926;-89
2022/08/14 17:04:07;;;;;;;;;;;35.20;33.20;;;33.83;32.12;100344.63;12256085;19;19957;-89
2022/08/14 17:08:14;;;;;;;;;;;35.20;33.10;;;33.78;32.51;100336.41;12248928;19;19953;-90
2022/08/14 17:12:18;;;;;;;;;;;35.10;33.40;;;33.60;32.81;100320.44;12245244;19;19923;-90
2022/08/14 17:16:20;;;;;;;;;;;35.00;33.40;;;33.54;32.50;100310.59;12252113;19;19914;-89
2022/08/14 17:20:23;;;;;;;;;;;34.90;33.30;;;33.46;32.45;100307.22;12251361;19;20262;-88
2022/08/14 17:24:24;;;;;;;;;;;34.90;33.20;;;33.48;32.75;100309.66;12254561;19;19914;-89
2022/08/14 17:28:26;;;;;;;;;;;34.80;33.20;;;33.36;32.63;100312.44;12247410;19;19946;-89
2022/08/14 17:32:31;;;;;;;;;;;34.70;33.40;;;33.25;32.74;100313.34;12249178;19;20610;-91
2022/08/14 17:36:33;;;;;;;;;;;34.70;33.30;;;33.19;32.32;100307.03;12250770;19;19915;-90
2022/08/14 17:40:35;;;;;;;;;;;34.60;33.20;;;33.19;32.55;100322.44;12248410;19;19942;-91
2022/08/14 17:44:38;;;;;;;;;;;34.60;33.30;;;33.05;32.48;100306.53;12249118;19;20289;-89
2022/08/14 17:48:41;;;;;;;;;;;34.50;33.30;;;33.08;32.86;100317.91;12245680;19;20468;-90
2022/08/14 17:52:44;;;;;;;;;;;34.50;33.40;;;33.04;32.70;100315.69;12245457;19;19930;-91
2022/08/14 17:56:48;;;;;;;;;;;34.40;33.30;;;33.01;32.72;100332.41;12250196;19;20384;-90
2022/08/14 18:00:55;;;;;;;;;;;34.40;33.30;;;32.85;32.83;100322.34;12246503;19;19990;-89
2022/08/14 18:04:58;;;;;;;;;;;34.40;33.60;;;32.81;32.42;100350.94;12247966;19;19943;-89
2022/08/14 18:09:00;;;;;;;;;;;34.20;33.30;;;32.68;32.97;100353.94;12249085;19;19939;-89
2022/08/14 18:13:03;;;;;;;;;;;34.10;33.20;;;32.28;33.05;100314.16;12242483;19;19955;-89
2022/08/14 18:17:06;;;;;;;;;;;34.10;33.40;;;32.54;32.64;100375.00;12253034;19;19930;-89
2022/08/14 18:21:08;;;;;;;;;;;34.00;33.50;;;32.29;32.73;100340.13;12247741;19;19918;-90
2022/08/14 18:25:09;;;;;;;;;;;33.90;33.50;;;32.05;32.99;100313.13;12252113;19;19914;-89
2022/08/14 18:29:12;;;;;;;;;;;33.80;33.40;;;31.99;32.84;100319.47;12255239;19;19911;-87
2022/08/14 18:33:20;;;;;;;;;;;33.70;33.50;;;31.91;33.18;100312.50;12250381;19;19927;-86